Aérodrome :
LOGIN :

S'inscrire | Disclaimer

   EN    FR    IT 

 










Légende :    VFR   VFR Marginal   IFR   IFR Intensif   IFR Très Intensif
Visi : 
Plafond : 
>= 8 km
>= 3000ft
5 à 8 km
1000 à 3000 ft
1500m à 5 km
500 à 1000 ft
800 à 1500m
200 à 500 ft
< 800m
< 200 ft
Symboles :   Orages  Brouillard  Fortes neiges  Fortes précipitations  Vent > 20 kt
SIGMETs :   Divers  Orages  Givrage  Turbulence  Onde Orograph.  Cendres Volcan.






- Altitude de l'aérodrome : 1300 ft
- Code IATA : LIG


LFBL - Limoges

DERNIER METAR :
  • 121300Z AUTO 18014KT 9999 -RADZ OVC003 06/06 Q1002 TEMPO 2000 -RADZ OVC001

METARs EXPIRÉS :
  • 121230Z AUTO 18014KT 150V210 7000 -DZ OVC001 05/05 Q1003 TEMPO 2000 -RADZ
  • 121200Z AUTO 18013KT 9999 OVC001 05/05 Q1004 TEMPO 2000 -RADZ OVC002
  • 121130Z AUTO 18015KT 8000 3600 OVC002 05/05 Q1005 TEMPO 2000 RADZ
  • 121100Z AUTO 18011KT 9999 OVC002 05/05 Q1006 TEMPO 2000 RADZ
  • 121030Z AUTO 18012KT 6000 -DZ OVC002 04/04 Q1007 TEMPO 2000 RADZ

TAF AMD TAF LFBL
Valide du 12 à 12h jusqu'au 13 à 12h UTC


121212Z 1212/1312 18012KT 9999 BKN006
TEMPO 1212/1215 2000 -RADZ OVC001
BECMG 1215/1216 -RA BKN012
TEMPO 1215/1219 19018G30KT
BECMG 1219/1221 27013KT NSW
TEMPO 1219/1307 4000 -RA BKN008
BECMG 1223/1301 26017G27KT
PROB40
TEMPO 1303/1308 27025G45KT
BECMG 1307/1309 BKN030 BKN060
ATIS : +33 5 55 48 40 37



MET'MAP, la Météo Aéronautique d'un coup d'oeil ! - Copyright ORBIFLY Décembre 2007 - Disclaimer

ORBIFLY MET'MAP TEAM :

Programmation & Développement : Alexandra Zaïnal
Sur une idée originale de : Baudouin d'Aumeries
Assistance à la programmation : Marc-Olivier Méhu
Soutien technique & logistique : Manuel Goepfert

Contact : metmap@orbifly.com




SOURCES & CREDITS :

   NOAA